createdAt,value
2017-07-19T00:01:50.785Z,99.90
2017-07-19T00:04:18.616Z,99.90
2017-07-19T00:06:46.296Z,99.90
2017-07-19T00:09:14.573Z,99.90
2017-07-19T00:11:43.208Z,99.90
2017-07-19T00:14:10.970Z,99.90
2017-07-19T00:16:38.650Z,99.90
2017-07-19T00:19:07.000Z,99.90
2017-07-19T00:21:34.630Z,99.90
2017-07-19T00:24:02.201Z,99.90
2017-07-19T00:26:29.817Z,99.90
2017-07-19T00:28:57.379Z,99.90
2017-07-19T00:31:25.333Z,99.90
2017-07-19T00:33:53.904Z,99.90
2017-07-19T00:36:21.492Z,99.90
2017-07-19T00:38:49.077Z,99.90
2017-07-19T00:41:16.580Z,99.90
2017-07-19T00:43:44.861Z,99.90
2017-07-19T00:46:12.696Z,99.90
2017-07-19T00:48:40.263Z,99.90
2017-07-19T00:51:09.786Z,99.90
2017-07-19T00:53:37.841Z,99.90
2017-07-19T00:56:05.794Z,99.90
2017-07-19T00:58:33.665Z,99.90
2017-07-19T01:01:01.360Z,99.90
2017-07-19T01:03:28.924Z,99.90
2017-07-19T01:05:57.363Z,99.90
2017-07-19T01:08:25.326Z,99.90
2017-07-19T01:10:53.188Z,99.90
2017-07-19T01:13:20.693Z,99.90
2017-07-19T01:15:48.989Z,99.90
2017-07-19T01:18:16.510Z,99.90
2017-07-19T01:20:44.046Z,99.90
2017-07-19T01:23:11.570Z,99.90
2017-07-19T01:25:39.828Z,99.90
2017-07-19T01:28:07.417Z,99.90
2017-07-19T01:30:35.307Z,99.90
2017-07-19T01:33:03.040Z,99.90
2017-07-19T01:35:30.659Z,99.90
2017-07-19T01:37:59.025Z,99.90
2017-07-19T01:40:28.187Z,99.90
2017-07-19T01:42:59.625Z,99.90
2017-07-19T01:45:27.153Z,99.90
2017-07-19T01:47:56.517Z,99.90
2017-07-19T01:50:27.726Z,99.90
2017-07-19T01:52:55.798Z,99.90
2017-07-19T01:55:23.560Z,99.90
2017-07-19T01:57:51.156Z,99.90
2017-07-19T02:00:19.434Z,99.90
2017-07-19T02:02:48.550Z,99.90
2017-07-19T02:05:16.081Z,99.90
2017-07-19T02:07:43.714Z,99.90
2017-07-19T02:10:11.273Z,99.90
2017-07-19T02:12:38.878Z,99.90
2017-07-19T02:15:06.506Z,99.90
2017-07-19T02:17:34.676Z,99.90
2017-07-19T02:20:02.344Z,99.90
2017-07-19T02:22:29.918Z,99.90
2017-07-19T02:24:57.617Z,99.90
2017-07-19T02:27:25.162Z,99.90
2017-07-19T02:29:52.849Z,99.90
2017-07-19T02:32:20.713Z,99.90
2017-07-19T02:34:48.286Z,99.90
2017-07-19T02:37:15.871Z,99.90
2017-07-19T02:39:43.737Z,99.90
2017-07-19T02:42:12.357Z,99.90
2017-07-19T02:44:40.243Z,99.90
2017-07-19T02:47:07.926Z,99.90
2017-07-19T02:49:35.539Z,99.90
2017-07-19T02:52:03.105Z,99.90
2017-07-19T02:54:30.650Z,99.90
2017-07-19T02:56:58.173Z,99.90
2017-07-19T02:59:26.836Z,99.90
2017-07-19T03:01:55.303Z,99.90
2017-07-19T03:04:22.896Z,99.90
2017-07-19T03:06:50.409Z,99.90
2017-07-19T03:09:18.045Z,99.90
2017-07-19T03:11:45.579Z,99.90
2017-07-19T03:14:13.116Z,99.90
2017-07-19T03:16:41.874Z,99.90
2017-07-19T03:19:09.459Z,99.90
2017-07-19T03:21:38.381Z,99.90
2017-07-19T03:24:06.183Z,99.90
2017-07-19T03:26:33.736Z,99.90
2017-07-19T03:29:01.297Z,99.90
2017-07-19T03:31:28.985Z,99.90
2017-07-19T03:33:56.748Z,99.90
2017-07-19T03:36:24.572Z,99.90
2017-07-19T03:38:52.810Z,99.90
2017-07-19T03:41:20.337Z,99.90
2017-07-19T03:43:48.046Z,99.90
2017-07-19T03:46:15.919Z,99.90
2017-07-19T03:48:43.497Z,99.90
2017-07-19T03:51:11.033Z,99.90
2017-07-19T03:53:38.603Z,99.90
2017-07-19T03:56:06.186Z,99.90
2017-07-19T03:58:33.825Z,99.90
2017-07-19T04:01:01.446Z,99.90
2017-07-19T04:03:29.969Z,99.90
2017-07-19T04:05:57.486Z,99.90
2017-07-19T04:08:25.323Z,99.90
2017-07-19T04:10:55.155Z,99.90
2017-07-19T04:13:23.787Z,99.90
2017-07-19T04:15:51.382Z,99.90
2017-07-19T04:18:19.065Z,99.90
2017-07-19T04:20:46.634Z,99.90
2017-07-19T04:23:14.169Z,99.90
2017-07-19T04:25:42.505Z,99.90
2017-07-19T04:28:10.078Z,99.90
2017-07-19T04:30:37.608Z,99.90
2017-07-19T04:33:05.216Z,99.90
2017-07-19T04:35:33.054Z,99.90
2017-07-19T04:38:00.584Z,99.90
2017-07-19T04:40:28.157Z,99.90
2017-07-19T04:42:56.003Z,99.90
2017-07-19T04:45:24.346Z,99.90
2017-07-19T04:47:52.114Z,99.90
2017-07-19T04:50:19.949Z,99.90
2017-07-19T04:52:48.265Z,99.90
2017-07-19T04:55:15.771Z,99.90
2017-07-19T04:57:44.748Z,99.90
2017-07-19T05:00:12.314Z,99.90
2017-07-19T05:02:40.142Z,99.90
2017-07-19T05:05:08.178Z,99.90
2017-07-19T05:07:35.701Z,99.90
2017-07-19T05:10:03.242Z,99.90
2017-07-19T05:12:30.782Z,99.90
2017-07-19T05:14:58.308Z,99.90
2017-07-19T05:17:26.101Z,99.90
2017-07-19T05:19:53.670Z,99.90
2017-07-19T05:22:21.206Z,99.90
2017-07-19T05:24:48.771Z,99.90
2017-07-19T05:27:16.269Z,99.90
2017-07-19T05:29:44.557Z,94.30
2017-07-19T05:32:12.830Z,93.60
2017-07-19T05:34:40.503Z,74.90
2017-07-19T05:37:08.083Z,71.10
2017-07-19T05:39:36.406Z,77.10
2017-07-19T05:42:05.053Z,88.50
2017-07-19T05:44:38.339Z,91.30
2017-07-19T05:47:07.659Z,68.20
2017-07-19T05:49:36.155Z,68.00
2017-07-19T05:52:03.719Z,54.10
2017-07-19T05:54:31.233Z,58.20
2017-07-19T05:56:58.794Z,54.50
2017-07-19T05:59:26.304Z,38.60
2017-07-19T06:01:53.834Z,33.40
2017-07-19T06:04:21.357Z,31.40
2017-07-19T06:06:48.957Z,22.90
2017-07-19T06:09:16.460Z,16.40
2017-07-19T06:11:44.245Z,14.20
2017-07-19T06:14:11.864Z,16.10
2017-07-19T06:16:40.588Z,15.00
2017-07-19T06:19:08.170Z,14.90
2017-07-19T06:21:35.694Z,15.50
2017-07-19T06:24:03.240Z,14.10
2017-07-19T06:26:31.510Z,18.40
2017-07-19T06:28:59.177Z,16.90
2017-07-19T06:31:26.713Z,16.40
2017-07-19T06:33:54.322Z,14.20
2017-07-19T06:36:22.475Z,15.50
2017-07-19T06:38:49.994Z,18.40
2017-07-19T06:41:19.309Z,21.60
2017-07-19T06:43:47.497Z,21.50
2017-07-19T06:46:15.079Z,17.20
2017-07-19T06:48:42.643Z,12.50
2017-07-19T06:51:10.187Z,18.00
2017-07-19T06:53:37.687Z,23.20
2017-07-19T06:56:05.980Z,15.60
2017-07-19T06:58:33.532Z,15.40
2017-07-19T07:01:02.093Z,12.10
2017-07-19T07:03:29.595Z,6.40
2017-07-19T07:05:57.268Z,6.60
2017-07-19T07:08:25.791Z,4.20
2017-07-19T07:10:54.138Z,5.80
2017-07-19T07:13:22.383Z,6.60
2017-07-19T07:15:49.970Z,9.10
2017-07-19T07:18:17.596Z,8.60
2017-07-19T07:20:45.146Z,10.60
2017-07-19T07:23:12.706Z,5.50
2017-07-19T07:25:40.376Z,8.50
2017-07-19T07:28:08.149Z,13.90
2017-07-19T07:30:36.412Z,11.60
2017-07-19T07:33:04.014Z,10.70
2017-07-19T07:35:31.516Z,10.00
2017-07-19T07:37:59.148Z,12.00
2017-07-19T07:40:27.437Z,16.00
2017-07-19T07:42:55.045Z,15.90
2017-07-19T07:45:22.620Z,14.10
2017-07-19T07:47:50.818Z,10.50
2017-07-19T07:50:21.785Z,8.10
2017-07-19T07:52:49.302Z,7.40
2017-07-19T07:55:17.714Z,3.40
2017-07-19T07:57:45.209Z,3.50
2017-07-19T08:00:12.799Z,6.00
2017-07-19T08:02:41.073Z,3.30
2017-07-19T08:05:09.709Z,8.80
2017-07-19T08:07:37.201Z,8.70
2017-07-19T08:10:04.749Z,8.10
2017-07-19T08:12:32.337Z,3.30
2017-07-19T08:15:00.749Z,1.40
2017-07-19T08:17:28.373Z,1.30
2017-07-19T08:19:55.877Z,8.80
2017-07-19T08:22:23.437Z,5.30
2017-07-19T08:24:50.970Z,2.20
2017-07-19T08:27:19.243Z,1.00
2017-07-19T08:29:47.003Z,2.20
2017-07-19T08:32:14.582Z,4.70
2017-07-19T08:34:42.098Z,7.80
2017-07-19T08:37:10.574Z,10.90
2017-07-19T08:39:39.206Z,10.60
2017-07-19T08:42:06.767Z,10.50
2017-07-19T08:44:38.019Z,7.20
2017-07-19T08:47:06.174Z,4.20
2017-07-19T08:49:34.528Z,4.00
2017-07-19T08:52:02.308Z,1.00
2017-07-19T08:54:32.719Z,1.10
2017-07-19T08:57:00.302Z,1.00
2017-07-19T08:59:27.828Z,1.00
2017-07-19T09:01:55.417Z,2.90
2017-07-19T09:04:22.949Z,3.70
2017-07-19T09:06:50.523Z,3.40
2017-07-19T09:09:18.165Z,9.60
2017-07-19T09:11:45.745Z,13.70
2017-07-19T09:14:13.288Z,14.20
2017-07-19T09:16:40.803Z,14.70
2017-07-19T09:19:09.085Z,19.30
2017-07-19T09:21:37.365Z,9.80
2017-07-19T09:24:04.874Z,10.90
2017-07-19T09:26:32.385Z,6.60
2017-07-19T09:29:00.031Z,5.00
2017-07-19T09:31:28.317Z,8.90
2017-07-19T09:33:55.850Z,8.80
2017-07-19T09:36:23.669Z,11.20
2017-07-19T09:38:52.019Z,12.60
2017-07-19T09:41:19.524Z,15.60
2017-07-19T09:43:48.013Z,19.60
2017-07-19T09:46:15.518Z,21.10
2017-07-19T09:48:43.037Z,21.20
2017-07-19T09:51:10.605Z,19.50
2017-07-19T09:53:38.889Z,24.40
2017-07-19T09:56:06.389Z,24.40
2017-07-19T09:58:33.974Z,21.30
2017-07-19T10:01:01.509Z,22.90
2017-07-19T10:03:29.076Z,18.40
2017-07-19T10:05:57.252Z,17.00
2017-07-19T10:08:24.846Z,15.90
2017-07-19T10:10:52.397Z,16.70
2017-07-19T10:13:20.010Z,17.40
2017-07-19T10:15:47.713Z,17.60
2017-07-19T10:18:15.223Z,17.60
2017-07-19T10:20:42.889Z,21.10
2017-07-19T10:23:10.412Z,18.00
2017-07-19T10:25:37.941Z,15.90
2017-07-19T10:28:05.471Z,18.90
2017-07-19T10:30:33.033Z,20.30
2017-07-19T10:33:00.651Z,18.60
2017-07-19T10:35:29.601Z,14.90
2017-07-19T10:37:57.938Z,15.80
2017-07-19T10:40:25.450Z,15.70
2017-07-19T10:42:53.901Z,13.10
2017-07-19T10:45:22.682Z,14.60
2017-07-19T10:47:50.276Z,18.40
2017-07-19T10:50:17.796Z,19.00
2017-07-19T10:52:45.333Z,17.20
2017-07-19T10:55:12.862Z,18.70
2017-07-19T10:57:40.454Z,16.70
2017-07-19T11:00:08.000Z,18.00
2017-07-19T11:02:35.673Z,14.20
2017-07-19T11:05:03.282Z,12.00
2017-07-19T11:07:30.852Z,13.50
2017-07-19T11:09:58.973Z,16.90
2017-07-19T11:12:27.234Z,16.90
2017-07-19T11:14:54.819Z,17.90
2017-07-19T11:17:22.362Z,15.70
2017-07-19T11:19:50.014Z,18.50
2017-07-19T11:22:17.678Z,20.30
2017-07-19T11:24:45.318Z,20.20
2017-07-19T11:27:12.828Z,22.00
2017-07-19T11:29:40.409Z,17.30
2017-07-19T11:32:08.709Z,22.20
2017-07-19T11:34:36.325Z,20.10
2017-07-19T11:37:04.712Z,20.80
2017-07-19T11:39:32.249Z,23.30
2017-07-19T11:42:00.605Z,18.50
2017-07-19T11:44:28.120Z,18.30
2017-07-19T11:46:55.718Z,17.10
2017-07-19T11:49:23.225Z,14.70
2017-07-19T11:51:51.137Z,15.90
2017-07-19T11:54:19.820Z,15.80
2017-07-19T11:56:47.357Z,14.40
2017-07-19T11:59:14.892Z,15.80
2017-07-19T12:01:42.483Z,17.40
2017-07-19T12:04:10.133Z,16.10
2017-07-19T12:06:37.677Z,21.10
2017-07-19T12:09:05.742Z,17.50
2017-07-19T12:11:33.290Z,20.60
2017-07-19T12:14:00.950Z,19.80
2017-07-19T12:16:28.694Z,16.50
2017-07-19T12:18:56.321Z,16.00
2017-07-19T12:21:24.211Z,15.40
2017-07-19T12:23:52.742Z,17.10
2017-07-19T12:26:20.476Z,17.00
2017-07-19T12:28:48.108Z,18.40
2017-07-19T12:31:17.117Z,17.70
2017-07-19T12:33:45.608Z,17.70
2017-07-19T12:36:13.151Z,17.20
2017-07-19T12:38:42.626Z,24.00
2017-07-19T12:41:10.460Z,23.10
2017-07-19T12:43:37.969Z,22.10
2017-07-19T12:46:05.773Z,21.10
2017-07-19T12:48:33.372Z,17.50
2017-07-19T12:51:01.677Z,19.50
2017-07-19T12:53:29.237Z,19.50
2017-07-19T12:55:57.124Z,18.90
2017-07-19T12:58:24.884Z,15.10
2017-07-19T13:00:52.683Z,18.10
2017-07-19T13:03:20.305Z,16.40
2017-07-19T13:05:47.853Z,14.00
2017-07-19T13:08:16.144Z,12.70
2017-07-19T13:10:43.773Z,12.30
2017-07-19T13:13:11.390Z,10.30
2017-07-19T13:15:39.900Z,12.60
2017-07-19T13:18:08.662Z,16.40
2017-07-19T13:20:36.170Z,16.90
2017-07-19T13:23:03.665Z,15.10
2017-07-19T13:25:31.196Z,12.30
2017-07-19T13:27:59.518Z,15.30
2017-07-19T13:30:30.182Z,17.20
2017-07-19T13:33:01.327Z,15.60
2017-07-19T13:35:29.006Z,14.80
2017-07-19T13:37:56.705Z,15.70
2017-07-19T13:40:24.248Z,19.30
2017-07-19T13:42:51.786Z,16.10
2017-07-19T13:45:19.389Z,15.90
2017-07-19T13:47:47.742Z,18.90
2017-07-19T13:50:15.261Z,18.80
2017-07-19T13:52:42.893Z,14.70
2017-07-19T13:55:10.585Z,14.30
2017-07-19T13:57:38.299Z,12.40
2017-07-19T14:00:06.784Z,13.10
2017-07-19T14:02:35.013Z,13.00
2017-07-19T14:05:02.706Z,13.80
2017-07-19T14:07:31.174Z,17.70
2017-07-19T14:10:00.201Z,16.90
2017-07-19T14:12:27.725Z,13.60
2017-07-19T14:14:55.261Z,21.00
2017-07-19T14:17:22.800Z,15.10
2017-07-19T14:19:50.403Z,14.90
2017-07-19T14:22:17.907Z,16.90
2017-07-19T14:24:45.900Z,19.30
2017-07-19T14:27:13.536Z,15.30
2017-07-19T14:29:41.317Z,21.00
2017-07-19T14:32:08.980Z,12.10
2017-07-19T14:34:37.704Z,13.80
2017-07-19T14:37:05.257Z,10.90
2017-07-19T14:39:34.217Z,11.80
2017-07-19T14:42:01.839Z,16.10
2017-07-19T14:44:32.170Z,14.20
2017-07-19T14:47:00.169Z,14.40
2017-07-19T14:49:27.760Z,10.50
2017-07-19T14:51:56.073Z,10.90
2017-07-19T14:54:23.741Z,10.70
2017-07-19T14:56:51.257Z,17.30
2017-07-19T14:59:19.985Z,17.00
2017-07-19T15:01:47.887Z,17.30
2017-07-19T15:04:15.390Z,18.50
2017-07-19T15:06:43.057Z,15.70
2017-07-19T15:09:10.674Z,16.90
2017-07-19T15:11:38.285Z,17.00
2017-07-19T15:14:05.868Z,16.90
2017-07-19T15:16:33.606Z,16.50
2017-07-19T15:19:01.183Z,16.00
2017-07-19T15:21:29.746Z,22.90
2017-07-19T15:23:57.297Z,23.10
2017-07-19T15:26:25.061Z,20.80
2017-07-19T15:28:53.262Z,20.20
2017-07-19T15:31:20.897Z,20.00
2017-07-19T15:33:51.513Z,18.10
2017-07-19T15:36:21.959Z,19.60
2017-07-19T15:38:52.806Z,17.20
2017-07-19T15:41:21.485Z,17.80
2017-07-19T15:43:49.812Z,17.00
2017-07-19T15:46:17.424Z,15.80
2017-07-19T15:48:44.963Z,17.30
2017-07-19T15:51:12.687Z,18.30
2017-07-19T15:53:40.362Z,17.30
2017-07-19T15:56:07.948Z,15.70
2017-07-19T15:58:35.599Z,15.80
2017-07-19T16:01:03.313Z,14.80
2017-07-19T16:03:31.660Z,17.30
2017-07-19T16:05:59.358Z,17.40
2017-07-19T16:08:27.685Z,19.20
2017-07-19T16:10:55.269Z,18.50
2017-07-19T16:13:23.682Z,20.30
2017-07-19T16:15:51.240Z,20.30
2017-07-19T16:18:18.769Z,19.20
2017-07-19T16:20:46.504Z,18.20
2017-07-19T16:23:14.492Z,18.00
2017-07-19T16:25:42.782Z,22.70
2017-07-19T16:28:11.318Z,19.10
2017-07-19T16:30:38.908Z,19.00
2017-07-19T16:33:07.237Z,22.20
2017-07-19T16:35:34.841Z,22.00
2017-07-19T16:38:02.353Z,20.60
2017-07-19T16:40:30.682Z,19.50
2017-07-19T16:42:58.953Z,19.00
2017-07-19T16:45:27.431Z,19.00
2017-07-19T16:47:54.936Z,18.30
2017-07-19T16:50:22.725Z,21.40
2017-07-19T16:52:51.059Z,20.90
2017-07-19T16:55:18.584Z,23.00
2017-07-19T16:57:46.151Z,19.00
2017-07-19T17:00:14.485Z,20.90
2017-07-19T17:02:42.135Z,20.70
2017-07-19T17:05:09.709Z,20.90
2017-07-19T17:07:38.136Z,20.00
2017-07-19T17:10:06.521Z,20.90
2017-07-19T17:12:34.082Z,22.90
2017-07-19T17:15:01.672Z,22.90
2017-07-19T17:17:29.451Z,22.80
2017-07-19T17:19:56.952Z,22.80
2017-07-19T17:22:24.738Z,22.80
2017-07-19T17:24:55.089Z,22.70
2017-07-19T17:27:22.642Z,22.70
2017-07-19T17:29:50.264Z,22.70
2017-07-19T17:32:18.092Z,25.70
2017-07-19T17:34:46.540Z,28.60
2017-07-19T17:37:15.302Z,28.50
2017-07-19T17:39:43.662Z,29.90
2017-07-19T17:42:11.385Z,28.30
2017-07-19T17:44:40.365Z,30.10
2017-07-19T17:47:10.937Z,30.10
2017-07-19T17:49:41.189Z,29.50
2017-07-19T17:52:08.743Z,33.10
2017-07-19T17:54:37.093Z,41.20
2017-07-19T17:57:05.757Z,41.60
2017-07-19T17:59:33.365Z,38.80
2017-07-19T18:02:01.036Z,42.50
2017-07-19T18:04:28.586Z,41.60
2017-07-19T18:06:56.261Z,41.10
2017-07-19T18:09:23.841Z,45.40
2017-07-19T18:11:53.648Z,53.30
2017-07-19T18:14:21.921Z,56.00
2017-07-19T18:16:50.343Z,57.30
2017-07-19T18:19:18.020Z,57.50
2017-07-19T18:21:45.836Z,65.10
2017-07-19T18:24:13.639Z,66.50
2017-07-19T18:26:41.485Z,71.10
2017-07-19T18:29:09.617Z,74.60
2017-07-19T18:31:37.888Z,80.30
2017-07-19T18:34:05.526Z,80.30
2017-07-19T18:36:33.472Z,87.70
2017-07-19T18:39:01.393Z,93.10
2017-07-19T18:41:29.790Z,97.80
2017-07-19T18:43:57.429Z,97.80
2017-07-19T18:46:25.864Z,98.50
2017-07-19T18:48:54.100Z,98.10
2017-07-19T18:51:22.569Z,98.80
2017-07-19T18:53:51.601Z,99.90
2017-07-19T18:56:20.137Z,99.90
2017-07-19T18:58:47.638Z,99.90
2017-07-19T19:01:15.209Z,99.90
2017-07-19T19:03:42.864Z,99.90
2017-07-19T19:06:11.417Z,99.90
2017-07-19T19:08:39.018Z,99.90
2017-07-19T19:11:07.409Z,99.90
2017-07-19T19:13:36.052Z,99.90
2017-07-19T19:16:04.120Z,99.90
2017-07-19T19:18:31.766Z,99.90
2017-07-19T19:20:59.311Z,99.90
2017-07-19T19:23:27.152Z,99.90
2017-07-19T19:25:54.795Z,99.90
2017-07-19T19:28:23.184Z,99.90
2017-07-19T19:30:53.504Z,99.90
2017-07-19T19:33:22.402Z,99.90
2017-07-19T19:35:50.882Z,99.90
2017-07-19T19:38:19.225Z,99.90
2017-07-19T19:40:46.778Z,99.90
2017-07-19T19:43:14.346Z,99.90
2017-07-19T19:45:42.182Z,99.90
2017-07-19T19:48:09.700Z,99.90
2017-07-19T19:50:38.650Z,99.90
2017-07-19T19:53:07.887Z,99.90
2017-07-19T19:55:36.345Z,99.90
2017-07-19T19:58:05.284Z,99.90
2017-07-19T20:00:33.041Z,99.90
2017-07-19T20:03:01.782Z,99.90
2017-07-19T20:05:31.480Z,99.90
2017-07-19T20:08:02.838Z,99.90
2017-07-19T20:10:33.860Z,99.90
2017-07-19T20:13:04.609Z,99.90
2017-07-19T20:15:35.340Z,99.90
2017-07-19T20:18:05.155Z,99.90
2017-07-19T20:20:33.361Z,99.90
2017-07-19T20:23:02.820Z,99.90
2017-07-19T20:25:32.033Z,99.90
2017-07-19T20:28:01.960Z,99.90
2017-07-19T20:30:31.538Z,99.90
2017-07-19T20:33:01.284Z,99.90
2017-07-19T20:35:28.911Z,99.90
2017-07-19T20:38:04.130Z,99.90
2017-07-19T20:40:32.513Z,99.90
2017-07-19T20:43:01.329Z,99.90
2017-07-19T20:45:28.824Z,99.90
2017-07-19T20:47:57.360Z,99.90
2017-07-19T20:50:24.903Z,99.90
2017-07-19T20:52:54.156Z,99.90
2017-07-19T20:55:22.277Z,99.90
2017-07-19T20:57:51.312Z,99.90
2017-07-19T21:00:18.866Z,99.90
2017-07-19T21:02:46.624Z,99.90
2017-07-19T21:05:14.300Z,99.90
2017-07-19T21:07:42.256Z,99.90
2017-07-19T21:10:10.247Z,99.90
2017-07-19T21:12:38.411Z,99.90
2017-07-19T21:15:06.736Z,99.90
2017-07-19T21:17:35.106Z,99.90
2017-07-19T21:20:03.546Z,99.90
2017-07-19T21:22:34.995Z,99.90
2017-07-19T21:25:02.847Z,99.90
2017-07-19T21:27:30.439Z,99.90
2017-07-19T21:29:59.534Z,99.90
2017-07-19T21:32:27.877Z,99.90
2017-07-19T21:34:55.607Z,99.90
2017-07-19T21:37:23.456Z,99.90
2017-07-19T21:39:51.288Z,99.90
2017-07-19T21:42:19.051Z,99.90
2017-07-19T21:44:46.795Z,99.90
2017-07-19T21:47:15.335Z,99.90
2017-07-19T21:49:42.876Z,99.90
2017-07-19T21:52:11.354Z,99.90
2017-07-19T21:54:40.495Z,99.90
2017-07-19T21:57:08.090Z,99.90
2017-07-19T21:59:35.911Z,99.90
2017-07-19T22:02:04.275Z,99.90
2017-07-19T22:04:32.168Z,99.90
2017-07-19T22:07:00.547Z,99.90
2017-07-19T22:09:28.279Z,99.90
2017-07-19T22:11:55.907Z,99.90
2017-07-19T22:14:23.608Z,99.90
2017-07-19T22:16:51.583Z,99.90
2017-07-19T22:19:19.212Z,99.90
2017-07-19T22:21:48.383Z,99.90
2017-07-19T22:24:17.571Z,99.90
2017-07-19T22:26:45.137Z,99.90
2017-07-19T22:29:13.487Z,99.90
2017-07-19T22:31:41.404Z,99.90
2017-07-19T22:34:09.054Z,99.90
2017-07-19T22:36:37.286Z,99.90
2017-07-19T22:39:04.819Z,99.90
2017-07-19T22:41:35.155Z,99.90
2017-07-19T22:44:03.935Z,99.90
2017-07-19T22:46:31.815Z,99.90
2017-07-19T22:49:03.564Z,99.90
2017-07-19T22:51:31.189Z,99.90
2017-07-19T22:53:59.599Z,99.90
2017-07-19T22:56:27.296Z,99.90
2017-07-19T22:58:55.332Z,99.90
2017-07-19T23:01:23.324Z,99.90
2017-07-19T23:03:50.960Z,99.90
2017-07-19T23:06:19.699Z,99.90
2017-07-19T23:08:47.268Z,99.90
2017-07-19T23:11:14.816Z,99.90
2017-07-19T23:13:42.403Z,99.90
2017-07-19T23:16:10.015Z,99.90
2017-07-19T23:18:37.801Z,99.90
2017-07-19T23:21:08.191Z,99.90
2017-07-19T23:23:39.659Z,99.90
2017-07-19T23:26:07.571Z,99.90
2017-07-19T23:28:38.246Z,99.90
2017-07-19T23:31:09.429Z,99.90
2017-07-19T23:33:38.194Z,99.90
2017-07-19T23:36:05.844Z,99.90
2017-07-19T23:38:34.319Z,99.90
2017-07-19T23:41:02.994Z,99.90
2017-07-19T23:43:31.624Z,99.90
2017-07-19T23:46:01.927Z,99.90
2017-07-19T23:48:29.564Z,99.90
2017-07-19T23:50:57.948Z,99.90
2017-07-19T23:53:26.294Z,99.90
2017-07-19T23:55:53.879Z,99.90
2017-07-19T23:58:22.662Z,99.90
